Time;durP1;ratioP1;P1;durP2;ratioP2;P2;SDS_P1;SDS_P2;PMS_P1;PMS_P2;Temp;Humidity;BMP_temperature;BMP_pressure;BME280_temperature;BME280_humidity;BME280_pressure;Samples;Min_cycle;Max_cycle;Signal;HPM_P1;HPM_P2
2022/03/06 00:02:13;;;;;;;;;104.00;78.25;;;;;10.46;63.24;101766.06;5077022;28;45278;-78
2022/03/06 00:04:39;;;;;;;;;94.75;71.75;;;;;10.41;63.30;101767.69;5077371;28;46448;-78
2022/03/06 00:07:04;;;;;;;;;94.00;70.25;;;;;10.37;63.07;101768.47;5077152;28;45507;-78
2022/03/06 00:09:30;;;;;;;;;90.75;68.25;;;;;10.36;62.93;101764.03;5077398;27;45686;-78
2022/03/06 00:11:56;;;;;;;;;97.25;73.25;;;;;10.37;63.31;101771.09;5077732;28;45616;-78
2022/03/06 00:14:22;;;;;;;;;90.75;67.00;;;;;10.35;63.13;101779.84;5075388;28;48035;-78
2022/03/06 00:16:47;;;;;;;;;93.50;74.25;;;;;10.31;63.28;101776.22;5077215;28;45285;-78
2022/03/06 00:19:13;;;;;;;;;94.75;71.75;;;;;10.30;63.05;101771.81;5077070;27;45477;-78
2022/03/06 00:21:40;;;;;;;;;93.50;73.50;;;;;10.29;62.71;101783.22;5056820;28;45311;-78
2022/03/06 00:24:06;;;;;;;;;85.75;68.25;;;;;10.23;62.93;101762.84;5076870;28;46597;-78
2022/03/06 00:26:32;;;;;;;;;93.00;70.25;;;;;10.24;62.99;101769.00;5076867;28;45222;-78
2022/03/06 00:28:58;;;;;;;;;93.50;69.25;;;;;10.21;62.83;101776.78;5076797;27;45195;-78
2022/03/06 00:31:24;;;;;;;;;91.50;68.00;;;;;10.20;62.54;101782.91;5072765;28;45395;-78
2022/03/06 00:33:50;;;;;;;;;85.50;62.25;;;;;10.16;62.59;101776.66;5075978;28;46999;-78
2022/03/06 00:36:19;;;;;;;;;88.50;66.25;;;;;10.15;62.46;101771.34;5076835;27;45561;-78
2022/03/06 00:38:45;;;;;;;;;91.25;65.25;;;;;10.15;62.43;101771.34;5076229;28;45460;-79
2022/03/06 00:41:11;;;;;;;;;91.75;69.00;;;;;10.12;62.52;101772.16;5076903;27;45413;-78
2022/03/06 00:43:37;;;;;;;;;98.75;67.50;;;;;10.10;62.14;101775.59;5076289;27;47305;-79
2022/03/06 00:46:03;;;;;;;;;88.00;67.75;;;;;10.07;62.25;101762.34;5076518;27;51485;-79
2022/03/06 00:48:31;;;;;;;;;80.50;60.50;;;;;10.03;62.02;101763.09;5076748;27;45483;-78
2022/03/06 00:50:56;;;;;;;;;86.75;65.25;;;;;9.94;61.78;101758.44;5075384;28;45422;-78
2022/03/06 00:53:22;;;;;;;;;90.75;64.50;;;;;9.97;61.83;101767.34;5075102;28;47728;-79
2022/03/06 00:55:47;;;;;;;;;89.75;63.00;;;;;9.88;61.90;101751.25;5076424;27;45337;-78
2022/03/06 00:58:13;;;;;;;;;82.25;62.50;;;;;9.94;61.85;101772.53;5075224;28;45437;-79
2022/03/06 01:00:47;;;;;;;;;91.00;65.50;;;;;9.92;61.66;101768.06;5076233;27;45514;-79
2022/03/06 01:03:14;;;;;;;;;84.75;60.75;;;;;9.89;61.79;101770.59;5074985;28;47575;-78
2022/03/06 01:05:45;;;;;;;;;88.00;61.75;;;;;9.91;61.42;101766.28;5076280;27;45385;-79
2022/03/06 01:08:10;;;;;;;;;85.50;62.25;;;;;9.89;61.50;101774.13;5084775;27;45375;-78
2022/03/06 01:10:37;;;;;;;;;86.50;63.75;;;;;9.91;61.05;101771.56;5076485;27;45635;-78
2022/03/06 01:13:03;;;;;;;;;84.50;61.75;;;;;9.87;60.95;101783.75;5075720;27;45908;-78
2022/03/06 01:15:29;;;;;;;;;84.50;62.75;;;;;9.86;60.89;101783.72;5075934;28;45558;-78
2022/03/06 01:17:57;;;;;;;;;81.25;59.75;;;;;9.86;60.65;101778.44;5075978;28;45537;-78
2022/03/06 01:20:23;;;;;;;;;86.50;61.25;;;;;9.82;60.51;101785.38;5075134;28;45373;-78
2022/03/06 01:22:49;;;;;;;;;86.75;62.75;;;;;9.75;60.44;101764.03;5076096;27;46555;-78
2022/03/06 01:25:14;;;;;;;;;85.00;60.00;;;;;9.72;60.48;101767.47;5075733;28;45370;-78
2022/03/06 01:27:40;;;;;;;;;82.25;60.75;;;;;9.75;60.40;101782.47;5076084;28;45410;-78
2022/03/06 01:30:08;;;;;;;;;87.25;63.75;;;;;9.72;60.50;101780.66;5074512;28;45412;-78
2022/03/06 01:32:33;;;;;;;;;86.25;61.50;;;;;9.70;60.33;101787.66;5075850;27;47602;-78
2022/03/06 01:34:59;;;;;;;;;84.50;62.75;;;;;9.68;60.35;101781.41;5075788;28;45552;-78
2022/03/06 01:37:24;;;;;;;;;89.00;63.50;;;;;9.65;60.45;101783.97;5075880;27;45611;-78
2022/03/06 01:39:52;;;;;;;;;81.25;61.00;;;;;9.62;60.11;101792.69;5075542;27;45611;-78
2022/03/06 01:42:18;;;;;;;;;87.00;66.00;;;;;9.57;59.78;101783.72;5073759;28;45490;-78
2022/03/06 01:44:50;;;;;;;;;83.75;61.50;;;;;9.55;60.02;101785.44;5078538;27;51516;-78
2022/03/06 01:47:44;;;;;;;;;83.25;60.75;;;;;9.50;59.92;101789.69;5079471;27;45278;-78
2022/03/06 01:50:14;;;;;;;;;82.00;61.00;;;;;9.53;59.88;101791.50;5079092;27;45447;-78
2022/03/06 01:52:40;;;;;;;;;83.50;59.50;;;;;9.50;59.51;101789.69;5071340;28;47024;-78
2022/03/06 01:55:05;;;;;;;;;88.25;61.50;;;;;9.43;59.75;101796.50;5079273;27;45285;-78
2022/03/06 01:57:32;;;;;;;;;79.75;60.25;;;;;9.36;59.27;101778.69;5079265;28;45279;-78
2022/03/06 02:00:01;;;;;;;;;83.00;62.00;;;;;9.39;59.41;101791.97;5079186;27;45602;-79
2022/03/06 02:02:30;;;;;;;;;85.50;64.00;;;;;9.35;59.62;101792.72;5078769;27;46646;-78
2022/03/06 02:04:59;;;;;;;;;75.75;56.00;;;;;9.33;59.56;101796.19;5071884;28;49098;-78
2022/03/06 02:07:28;;;;;;;;;79.00;60.50;;;;;9.27;59.33;101798.59;5079281;28;45333;-78
2022/03/06 02:09:53;;;;;;;;;81.50;61.00;;;;;9.24;59.72;101799.41;5071100;28;45157;-79
2022/03/06 02:12:22;;;;;;;;;81.25;61.00;;;;;9.21;59.42;101799.28;5077713;28;45789;-78
2022/03/06 02:14:48;;;;;;;;;86.25;62.00;;;;;9.10;59.65;101785.78;5077555;28;45513;-78
2022/03/06 02:17:14;;;;;;;;;77.25;54.75;;;;;9.14;59.33;101797.31;5079079;27;45495;-78
2022/03/06 02:19:51;;;;;;;;;86.25;62.00;;;;;9.13;59.29;101799.06;5077857;28;45576;-78
2022/03/06 02:22:24;;;;;;;;;86.50;62.00;;;;;9.08;59.27;101790.09;5078900;27;46768;-78
2022/03/06 02:24:49;;;;;;;;;82.00;60.50;;;;;9.06;58.97;101785.66;5078660;27;45420;-78
2022/03/06 02:27:15;;;;;;;;;82.75;59.25;;;;;9.03;59.20;101780.28;5079186;27;45302;-78
2022/03/06 02:29:41;;;;;;;;;83.50;61.25;;;;;9.00;59.36;101775.81;5079230;27;45425;-78
2022/03/06 02:32:08;;;;;;;;;80.25;59.75;;;;;8.99;59.11;101789.81;5078431;27;45794;-78
2022/03/06 02:34:33;;;;;;;;;79.50;59.50;;;;;8.93;58.91;101785.22;5077648;28;45371;-78
2022/03/06 02:36:59;;;;;;;;;83.75;61.50;;;;;8.86;58.81;101769.19;5077218;28;45418;-78
2022/03/06 02:39:28;;;;;;;;;84.50;61.75;;;;;8.89;59.06;101792.97;5078909;27;45517;-78
2022/03/06 02:41:55;;;;;;;;;82.50;62.00;;;;;8.83;58.87;101793.66;5076409;28;45698;-79
2022/03/06 02:44:21;;;;;;;;;87.00;59.75;;;;;8.82;58.85;101794.50;5077236;28;45478;-78
2022/03/06 02:46:47;;;;;;;;;79.75;59.50;;;;;8.79;58.89;101797.06;5078409;27;45399;-78
2022/03/06 02:49:15;;;;;;;;;83.50;62.25;;;;;8.72;58.75;101791.53;5078724;27;45496;-78
2022/03/06 02:51:41;;;;;;;;;84.00;59.75;;;;;8.68;58.33;101781.72;5078235;27;45512;-78
2022/03/06 02:54:07;;;;;;;;;80.25;60.50;;;;;8.67;58.49;101804.53;5078041;28;45408;-78
2022/03/06 02:56:33;;;;;;;;;79.75;58.25;;;;;8.65;58.66;101806.22;5077388;28;45368;-78
2022/03/06 02:58:58;;;;;;;;;76.50;58.25;;;;;8.55;58.80;101793.59;5078378;27;45360;-78
2022/03/06 03:01:24;;;;;;;;;76.50;56.75;;;;;8.56;58.45;101800.63;5077922;27;47540;-78
2022/03/06 03:03:49;;;;;;;;;83.00;59.00;;;;;8.55;58.44;101802.38;5078106;27;45317;-79
2022/03/06 03:06:15;;;;;;;;;81.50;59.25;;;;;8.52;58.78;101799.66;5078714;27;45387;-78
2022/03/06 03:08:46;;;;;;;;;79.75;57.75;;;;;8.50;58.25;101792.53;5078443;28;45778;-78
2022/03/06 03:11:12;;;;;;;;;80.50;60.75;;;;;8.43;58.27;101780.91;5078557;27;46954;-78
2022/03/06 03:13:37;;;;;;;;;82.25;60.50;;;;;8.43;58.50;101791.44;5078025;27;45505;-78
2022/03/06 03:16:03;;;;;;;;;75.00;58.75;;;;;8.44;58.28;101800.22;5077349;28;45753;-78
2022/03/06 03:18:29;;;;;;;;;74.50;56.75;;;;;8.39;58.21;101787.78;5079327;28;45586;-78
2022/03/06 03:20:54;;;;;;;;;77.50;58.00;;;;;8.32;58.25;101785.75;5079547;27;46921;-77
2022/03/06 03:23:19;;;;;;;;;81.75;60.75;;;;;8.33;58.23;101794.53;5077001;28;47374;-78
2022/03/06 03:25:45;;;;;;;;;84.25;62.25;;;;;8.31;58.15;101793.56;5077957;28;45902;-79
2022/03/06 03:28:10;;;;;;;;;83.50;59.25;;;;;8.26;58.25;101793.44;5077700;28;45282;-78
2022/03/06 03:30:37;;;;;;;;;77.75;58.50;;;;;8.27;58.18;101794.31;5077455;28;47215;-78
2022/03/06 03:33:02;;;;;;;;;78.00;57.75;;;;;8.23;58.06;101793.31;5071843;28;45484;-79
2022/03/06 03:35:28;;;;;;;;;81.25;61.00;;;;;8.22;58.22;101790.63;5077679;27;45910;-79
2022/03/06 03:37:54;;;;;;;;;79.50;61.25;;;;;8.16;58.00;101791.31;5077661;27;45323;-78
2022/03/06 03:40:19;;;;;;;;;80.25;58.75;;;;;8.18;58.39;101791.34;5077129;28;51543;-78
2022/03/06 03:42:46;;;;;;;;;77.00;56.75;;;;;8.11;58.28;101790.25;5077720;28;45366;-78
2022/03/06 03:45:12;;;;;;;;;83.00;62.50;;;;;8.13;58.21;101805.22;5075328;28;45413;-78
2022/03/06 03:47:37;;;;;;;;;79.75;59.50;;;;;8.10;58.29;101817.41;5077731;27;46517;-78
2022/03/06 03:50:04;;;;;;;;;76.00;58.50;;;;;8.04;58.45;101806.63;5077004;27;46458;-78
2022/03/06 03:52:29;;;;;;;;;82.25;59.75;;;;;8.06;58.31;101811.13;5077510;27;45381;-78
2022/03/06 03:54:54;;;;;;;;;84.25;59.50;;;;;8.05;58.27;101813.69;5077072;28;45867;-78
2022/03/06 03:57:23;;;;;;;;;80.25;59.25;;;;;8.04;58.37;101823.31;5077606;28;45647;-78
2022/03/06 03:59:50;;;;;;;;;79.75;59.25;;;;;7.97;58.17;101815.13;5077003;27;46733;-78
2022/03/06 04:02:16;;;;;;;;;78.25;59.25;;;;;7.96;58.16;101823.88;5076175;28;45505;-78
2022/03/06 04:04:42;;;;;;;;;80.00;57.25;;;;;7.95;58.44;101824.72;5076962;28;45425;-79
2022/03/06 04:07:07;;;;;;;;;79.75;60.25;;;;;7.88;58.37;101815.66;5077052;28;46420;-78
2022/03/06 04:09:34;;;;;;;;;81.25;61.00;;;;;7.91;58.50;101828.94;5076844;28;47584;-78
2022/03/06 04:12:00;;;;;;;;;81.25;60.50;;;;;7.88;58.55;101828.81;5072341;28;45286;-78
2022/03/06 04:14:25;;;;;;;;;85.25;58.75;;;;;7.78;58.60;101817.09;5077321;27;45498;-79
2022/03/06 04:16:53;;;;;;;;;79.50;57.75;;;;;7.85;58.55;101839.25;5075754;28;45505;-79
2022/03/06 04:19:19;;;;;;;;;83.50;62.25;;;;;7.82;58.59;101834.75;5076994;27;47770;-78
2022/03/06 04:21:50;;;;;;;;;78.75;58.50;;;;;7.80;58.75;101839.06;5077055;28;45465;-79
2022/03/06 04:24:15;;;;;;;;;78.50;62.00;;;;;7.77;58.53;101838.03;5070154;28;45398;-78
2022/03/06 04:26:41;;;;;;;;;79.25;58.75;;;;;7.73;58.75;101834.41;5077091;28;45401;-79
2022/03/06 04:29:06;;;;;;;;;81.75;60.50;;;;;7.72;58.58;101840.47;5076620;28;46799;-78
2022/03/06 04:31:32;;;;;;;;;82.50;61.00;;;;;7.70;58.56;101847.44;5076428;27;45207;-78
2022/03/06 04:33:57;;;;;;;;;83.00;61.25;;;;;7.68;58.58;101843.84;5076716;28;45276;-79
2022/03/06 04:36:23;;;;;;;;;80.00;61.75;;;;;7.63;58.81;101839.25;5077078;28;45662;-79
2022/03/06 04:38:48;;;;;;;;;81.75;60.50;;;;;7.61;58.69;101850.56;5076681;27;46686;-79
2022/03/06 04:41:15;;;;;;;;;79.50;58.75;;;;;7.60;59.04;101847.91;5075018;28;49526;-79
2022/03/06 04:43:41;;;;;;;;;74.75;59.00;;;;;7.54;58.96;101847.66;5076820;27;45376;-79
2022/03/06 04:46:06;;;;;;;;;87.00;61.25;;;;;7.58;58.93;101852.22;5075433;28;45496;-79
2022/03/06 04:48:32;;;;;;;;;86.00;59.75;;;;;7.44;58.74;101840.25;5076701;28;45457;-79
2022/03/06 04:50:59;;;;;;;;;81.00;60.25;;;;;7.54;58.88;101858.16;5073860;28;48962;-79
2022/03/06 04:53:24;;;;;;;;;80.00;60.75;;;;;7.47;58.86;101851.78;5075730;27;45575;-79
2022/03/06 04:55:50;;;;;;;;;82.25;59.25;;;;;7.48;58.86;101860.56;5076070;27;45508;-79
2022/03/06 04:58:15;;;;;;;;;89.00;63.00;;;;;7.44;59.08;101859.53;5076476;27;46362;-78
2022/03/06 05:00:41;;;;;;;;;83.50;60.25;;;;;7.44;59.15;101862.16;5076081;28;45328;-79
2022/03/06 05:03:06;;;;;;;;;84.75;61.00;;;;;7.42;59.02;101860.31;5076446;28;45667;-79
2022/03/06 05:05:32;;;;;;;;;84.75;61.00;;;;;7.41;59.10;101861.16;5076290;28;48318;-79
2022/03/06 05:07:57;;;;;;;;;81.50;59.00;;;;;7.39;59.17;101865.44;5075606;28;46447;-79
2022/03/06 05:10:22;;;;;;;;;83.75;61.50;;;;;7.37;59.27;101868.00;5076292;28;45327;-78
2022/03/06 05:12:48;;;;;;;;;78.75;59.25;;;;;7.33;59.24;101855.59;5076367;27;47468;-78
2022/03/06 05:15:13;;;;;;;;;80.75;58.50;;;;;7.27;59.30;101850.09;5075935;28;45428;-78
2022/03/06 05:17:40;;;;;;;;;86.25;60.50;;;;;7.32;59.07;101862.56;5075836;28;46430;-79
2022/03/06 05:20:07;;;;;;;;;85.00;61.50;;;;;7.28;59.29;101863.28;5075474;27;45500;-78
2022/03/06 05:22:32;;;;;;;;;84.00;61.75;;;;;7.31;59.30;101867.78;5076436;27;45552;-78
2022/03/06 05:24:58;;;;;;;;;82.50;57.50;;;;;7.29;59.18;101864.16;5074858;28;47318;-78
2022/03/06 05:27:25;;;;;;;;;75.25;54.25;;;;;7.28;59.28;101862.38;5075513;28;46593;-78
2022/03/06 05:29:51;;;;;;;;;81.00;60.50;;;;;7.25;59.33;101873.66;5076076;27;45529;-78
2022/03/06 05:32:16;;;;;;;;;75.50;60.50;;;;;7.19;59.49;101868.16;5075640;27;47712;-78
2022/03/06 05:34:42;;;;;;;;;85.50;61.50;;;;;7.25;59.32;101883.28;5075309;28;45556;-78
2022/03/06 05:37:07;;;;;;;;;84.00;60.00;;;;;7.26;59.30;101888.59;5075630;28;47136;-78
2022/03/06 05:39:33;;;;;;;;;82.50;60.25;;;;;7.21;59.37;101884.88;5075750;27;45203;-78
2022/03/06 05:41:58;;;;;;;;;81.00;60.25;;;;;7.12;59.46;101862.56;5075640;28;45227;-78
2022/03/06 05:44:24;;;;;;;;;79.75;59.25;;;;;7.20;59.56;101875.22;5076161;27;45465;-78
2022/03/06 05:46:51;;;;;;;;;82.50;59.00;;;;;7.18;59.51;101882.09;5075852;27;46071;-78
2022/03/06 05:49:16;;;;;;;;;80.75;61.25;;;;;7.18;59.45;101876.84;5075830;28;45796;-78
2022/03/06 05:51:42;;;;;;;;;80.00;60.25;;;;;7.14;59.39;101882.84;5074788;28;45735;-77
2022/03/06 05:54:08;;;;;;;;;83.50;60.75;;;;;7.16;59.48;101894.28;5075738;27;45514;-78
2022/03/06 05:56:34;;;;;;;;;81.75;58.25;;;;;7.16;59.65;101894.28;5075359;27;47657;-78
2022/03/06 05:59:00;;;;;;;;;83.75;61.75;;;;;7.15;59.52;101900.38;5075239;27;45303;-78
2022/03/06 06:01:29;;;;;;;;;79.25;58.75;;;;;7.08;59.56;101899.25;5073145;27;45509;-78
2022/03/06 06:03:57;;;;;;;;;82.75;61.25;;;;;7.12;59.62;101899.34;5075683;28;45477;-78
2022/03/06 06:06:24;;;;;;;;;81.75;59.00;;;;;7.04;59.71;101889.44;5075571;27;46460;-78
2022/03/06 06:08:49;;;;;;;;;81.00;59.50;;;;;7.05;59.65;101892.94;5074762;28;45355;-78
2022/03/06 06:11:15;;;;;;;;;79.50;59.75;;;;;7.03;59.42;101887.66;5076663;27;45365;-78
2022/03/06 06:13:40;;;;;;;;;86.00;61.00;;;;;7.06;59.58;101907.88;5079718;28;45285;-78
2022/03/06 06:16:05;;;;;;;;;83.75;60.00;;;;;7.04;59.54;101902.56;5077125;28;49526;-78
2022/03/06 06:18:31;;;;;;;;;81.50;57.75;;;;;7.04;59.63;101909.53;5075696;28;45409;-78
2022/03/06 06:20:57;;;;;;;;;85.00;61.75;;;;;7.03;59.77;101912.97;5075205;28;45575;-78
2022/03/06 06:23:23;;;;;;;;;90.00;63.75;;;;;7.02;59.60;101906.81;5074606;28;45612;-78
2022/03/06 06:25:49;;;;;;;;;82.50;62.75;;;;;7.03;59.76;101913.91;5075043;27;46805;-78
2022/03/06 06:28:15;;;;;;;;;86.00;59.25;;;;;6.96;59.64;101903.94;5075380;27;47456;-78
2022/03/06 06:30:40;;;;;;;;;87.00;60.75;;;;;6.96;59.57;101903.06;5076719;28;45220;-78
2022/03/06 06:33:06;;;;;;;;;88.00;62.25;;;;;7.01;59.58;101914.66;5070820;27;45888;-78
2022/03/06 06:35:32;;;;;;;;;84.00;61.00;;;;;7.00;59.92;101913.75;5077387;28;46564;-78
2022/03/06 06:37:58;;;;;;;;;83.00;62.75;;;;;7.00;59.75;101918.13;5078522;27;46395;-78
2022/03/06 06:40:23;;;;;;;;;81.00;60.25;;;;;7.00;59.80;101918.13;5078362;28;48369;-78
2022/03/06 06:42:49;;;;;;;;;79.25;59.75;;;;;6.99;59.81;101921.56;5078955;27;45483;-78
2022/03/06 06:45:15;;;;;;;;;88.25;64.00;;;;;7.00;59.98;101918.13;5077923;27;51516;-78
2022/03/06 06:47:40;;;;;;;;;90.25;63.00;;;;;7.01;59.80;101915.53;5078782;28;45393;-78
2022/03/06 06:50:09;;;;;;;;;90.00;62.25;;;;;7.00;59.74;101923.38;5078202;27;45237;-78
2022/03/06 06:52:34;;;;;;;;;82.25;63.00;;;;;6.97;59.62;101924.13;5078541;27;45609;-78
2022/03/06 06:55:00;;;;;;;;;83.00;61.50;;;;;7.00;59.70;101923.38;5078440;28;49124;-78
2022/03/06 06:57:25;;;;;;;;;89.50;63.75;;;;;7.01;59.76;101931.31;5077983;27;45473;-78
2022/03/06 06:59:51;;;;;;;;;85.00;61.25;;;;;7.02;59.56;101932.19;5077110;28;45502;-78
2022/03/06 07:02:18;;;;;;;;;88.50;64.00;;;;;7.02;59.76;101935.72;5078169;27;45509;-78
2022/03/06 07:04:44;;;;;;;;;90.25;64.50;;;;;7.00;59.62;101932.13;5075053;28;45760;-78
2022/03/06 07:07:09;;;;;;;;;87.50;62.50;;;;;6.98;59.79;101927.66;5078484;27;45524;-78
2022/03/06 07:09:35;;;;;;;;;86.00;63.75;;;;;7.00;59.49;101929.50;5078252;28;45303;-78
2022/03/06 07:12:00;;;;;;;;;89.50;62.75;;;;;7.06;59.87;101947.25;5078543;28;45608;-78
2022/03/06 07:14:25;;;;;;;;;88.00;63.25;;;;;7.11;59.61;101950.97;5077583;28;50552;-78
2022/03/06 07:16:51;;;;;;;;;89.25;63.00;;;;;7.18;59.61;101952.13;5077867;28;50461;-78
2022/03/06 07:19:17;;;;;;;;;83.75;62.25;;;;;7.26;59.48;101956.88;5077179;28;45987;-78
2022/03/06 07:21:44;;;;;;;;;91.50;65.25;;;;;7.35;59.41;101959.03;5077748;27;45220;-78
2022/03/06 07:24:09;;;;;;;;;84.75;61.75;;;;;7.44;59.26;101955.84;5077800;27;46982;-78
2022/03/06 07:26:35;;;;;;;;;83.75;63.00;;;;;7.47;58.99;101959.53;5077382;28;48258;-78
2022/03/06 07:29:00;;;;;;;;;91.00;64.75;;;;;7.52;59.19;101968.50;5078057;28;45212;-78
2022/03/06 07:31:25;;;;;;;;;82.75;62.75;;;;;7.50;59.13;101964.88;5071207;28;45976;-82
2022/03/06 07:33:51;;;;;;;;;86.00;60.50;;;;;7.58;59.03;101974.00;5070663;28;46347;-79
2022/03/06 07:36:16;;;;;;;;;86.75;61.75;;;;;7.60;58.76;101966.16;5069785;27;48751;-79
2022/03/06 07:38:42;;;;;;;;;83.00;60.50;;;;;7.61;58.65;101975.84;5076359;27;46957;-79
2022/03/06 07:41:08;;;;;;;;;84.25;61.50;;;;;7.65;58.83;101987.41;5068941;28;45543;-79
2022/03/06 07:43:35;;;;;;;;;82.00;61.25;;;;;7.61;58.35;101978.47;5073309;28;45521;-79
2022/03/06 07:46:01;;;;;;;;;86.50;64.00;;;;;7.68;58.54;101980.53;5077926;27;45675;-79
2022/03/06 07:48:26;;;;;;;;;82.25;60.50;;;;;7.74;58.56;101995.66;5078327;27;45250;-79
2022/03/06 07:50:52;;;;;;;;;84.00;62.25;;;;;7.77;58.39;101998.41;5199926;22;45527;-78
2022/03/06 07:53:17;;;;;;;;;86.75;63.00;;;;;7.80;58.42;101998.53;5112928;27;48173;-79
2022/03/06 07:55:43;;;;;;;;;84.75;60.25;;;;;7.83;58.33;101996.06;5106516;27;45368;-80
2022/03/06 07:58:08;;;;;;;;;82.00;60.50;;;;;7.82;58.05;101994.22;5108734;27;55986;-79
2022/03/06 08:00:33;;;;;;;;;86.00;60.50;;;;;7.76;58.01;102001.88;5106462;27;45369;-79
2022/03/06 08:02:59;;;;;;;;;79.50;59.75;;;;;7.70;58.11;102002.53;5107774;27;60913;-79
2022/03/06 08:05:24;;;;;;;;;89.00;59.75;;;;;7.70;58.10;102009.50;5111711;27;50955;-79
2022/03/06 08:07:50;;;;;;;;;82.25;60.75;;;;;7.68;58.18;102005.94;5118169;27;45680;-79
2022/03/06 08:10:15;;;;;;;;;86.25;60.25;;;;;7.68;58.19;102014.72;5117363;27;52094;-79
2022/03/06 08:12:41;;;;;;;;;89.75;62.00;;;;;7.65;58.42;102006.69;5098937;27;63034;-79
2022/03/06 08:15:10;;;;;;;;;90.25;64.00;;;;;7.67;58.00;102020.81;5118030;27;45425;-80
2022/03/06 08:17:36;;;;;;;;;80.00;59.50;;;;;7.66;58.15;102012.84;5110598;27;45518;-79
2022/03/06 08:20:02;;;;;;;;;84.25;60.00;;;;;7.60;58.10;102011.75;5112518;27;45420;-79
2022/03/06 08:22:28;;;;;;;;;87.50;61.50;;;;;7.65;57.77;102011.06;5112630;27;48467;-78
2022/03/06 08:24:54;;;;;;;;;79.75;59.25;;;;;7.62;58.12;102022.34;5113190;27;52808;-80
2022/03/06 08:27:20;;;;;;;;;81.75;59.50;;;;;7.63;58.17;102023.25;5095128;27;45526;-79
2022/03/06 08:29:45;;;;;;;;;80.75;62.75;;;;;7.66;58.02;102028.63;5094569;27;45550;-79
2022/03/06 08:32:11;;;;;;;;;79.75;59.00;;;;;7.69;58.19;102026.13;5098125;27;51031;-78
2022/03/06 08:34:36;;;;;;;;;84.50;58.25;;;;;7.66;58.07;102021.63;5110364;27;45541;-78
2022/03/06 08:37:04;;;;;;;;;83.00;60.25;;;;;7.75;58.01;102032.53;5112592;27;58507;-78
2022/03/06 08:39:33;;;;;;;;;82.00;60.50;;;;;7.77;58.02;102032.59;5110779;27;45483;-79
2022/03/06 08:41:58;;;;;;;;;77.25;58.00;;;;;7.78;57.91;102029.16;5112242;27;60985;-78
2022/03/06 08:44:24;;;;;;;;;84.75;62.25;;;;;7.76;57.94;102026.44;5111511;27;45516;-79
2022/03/06 08:46:49;;;;;;;;;79.50;58.75;;;;;7.79;57.77;102034.47;5113032;27;45353;-80
2022/03/06 08:49:14;;;;;;;;;82.75;59.00;;;;;7.79;57.87;102033.56;5110578;27;50059;-79
2022/03/06 08:51:40;;;;;;;;;75.50;58.00;;;;;7.87;57.65;102042.66;5079488;27;46287;-81
2022/03/06 08:54:05;;;;;;;;;82.00;58.25;;;;;7.90;57.20;102039.25;5105802;27;45396;-79
2022/03/06 08:56:31;;;;;;;;;79.00;57.75;;;;;7.92;57.56;102038.47;5115493;27;45420;-80
2022/03/06 08:58:56;;;;;;;;;84.50;60.75;;;;;7.90;57.42;102023.50;5091474;27;45582;-80
2022/03/06 09:01:22;;;;;;;;;69.75;53.25;;;;;7.95;56.64;102028.09;5078940;27;59079;-80
2022/03/06 09:03:47;;;;;;;;;77.25;55.50;;;;;7.99;56.95;102034.34;5092197;27;45426;-80
2022/03/06 09:06:13;;;;;;;;;79.00;57.25;;;;;8.00;56.76;102034.44;5083649;27;45745;-80
2022/03/06 09:08:38;;;;;;;;;74.25;55.00;;;;;8.05;56.64;102029.38;5093375;27;52021;-79
2022/03/06 09:11:05;;;;;;;;;75.50;54.75;;;;;8.11;56.87;102045.41;5096367;27;46463;-78
2022/03/06 09:13:34;;;;;;;;;77.50;54.00;;;;;8.14;56.91;102056.91;5095566;27;45511;-78
2022/03/06 09:16:03;;;;;;;;;76.00;53.50;;;;;8.18;56.28;102044.81;5098462;27;45479;-78
2022/03/06 09:18:28;;;;;;;;;76.50;56.50;;;;;8.15;56.14;102026.28;5095147;27;45636;-78
2022/03/06 09:20:53;;;;;;;;;76.25;55.75;;;;;8.27;56.61;102046.91;5116934;27;46422;-78
2022/03/06 09:23:19;;;;;;;;;75.50;55.25;;;;;8.32;56.04;102041.00;5111604;27;45277;-77
2022/03/06 09:25:44;;;;;;;;;76.50;54.25;;;;;8.38;56.18;102037.75;5116193;27;45531;-78
2022/03/06 09:28:10;;;;;;;;;73.75;53.25;;;;;8.42;55.45;102039.66;5113224;27;45534;-77
2022/03/06 09:30:35;;;;;;;;;70.50;53.00;;;;;8.45;55.25;102033.59;5109920;27;47055;-78
2022/03/06 09:33:18;;;;;;;;;69.00;51.00;;;;;8.53;55.73;102045.34;5114630;27;45893;-79
2022/03/06 09:35:44;;;;;;;;;68.75;52.50;;;;;8.59;55.00;102051.72;5113836;27;45324;-76
2022/03/06 09:38:09;;;;;;;;;65.50;51.50;;;;;8.66;55.28;102050.22;5098371;27;45461;-76
2022/03/06 09:40:35;;;;;;;;;64.00;50.00;;;;;8.72;54.75;102044.28;5113954;27;47333;-76
2022/03/06 09:43:03;;;;;;;;;66.00;49.25;;;;;8.77;53.98;102051.53;5116115;27;45440;-76
2022/03/06 09:45:30;;;;;;;;;68.25;51.50;;;;;8.82;54.37;102059.59;5115858;27;45547;-77
2022/03/06 09:47:58;;;;;;;;;67.00;50.75;;;;;8.85;53.68;102063.25;5115441;27;45610;-76
2022/03/06 09:50:23;;;;;;;;;64.50;47.75;;;;;8.89;53.81;102058.97;5116640;27;47457;-77
2022/03/06 09:52:49;;;;;;;;;62.00;49.50;;;;;8.93;53.45;102059.16;5114242;27;45568;-74
2022/03/06 09:55:15;;;;;;;;;63.50;50.00;;;;;9.00;53.58;102069.91;5116291;27;45840;-73
2022/03/06 09:57:40;;;;;;;;;62.25;47.25;;;;;9.00;54.20;102056.75;5114452;27;45607;-74
2022/03/06 10:00:06;;;;;;;;;60.75;48.75;;;;;9.12;53.54;102065.13;5111506;27;47260;-75
2022/03/06 10:02:32;;;;;;;;;68.25;49.50;;;;;9.15;53.20;102065.22;5115169;27;45547;-76
2022/03/06 10:04:57;;;;;;;;;70.75;52.25;;;;;9.22;53.64;102064.63;5115235;27;45712;-76
2022/03/06 10:07:23;;;;;;;;;63.25;47.50;;;;;9.28;53.25;102062.22;5117680;27;45537;-76
2022/03/06 10:09:49;;;;;;;;;61.50;49.00;;;;;9.30;53.34;102057.88;5113738;27;47588;-76
2022/03/06 10:12:33;;;;;;;;;60.50;45.25;;;;;9.42;53.22;102066.22;5118571;27;45764;-76
2022/03/06 10:14:59;;;;;;;;;58.00;46.75;;;;;9.49;51.64;102072.63;5110781;27;45315;-76
2022/03/06 10:17:27;;;;;;;;;59.50;47.25;;;;;9.53;51.97;102058.69;5120526;27;45368;-77
2022/03/06 10:20:12;;;;;;;;;55.50;45.25;;;;;9.58;51.78;102062.38;5118292;27;47298;-77
2022/03/06 10:22:41;;;;;;;;;60.25;47.75;;;;;9.63;51.70;102057.25;5118445;27;45397;-76
2022/03/06 10:25:13;;;;;;;;;61.25;47.25;;;;;9.70;51.97;102054.00;5119480;27;45728;-77
2022/03/06 10:27:44;;;;;;;;;58.00;44.00;;;;;9.77;51.33;102063.03;5111641;27;45556;-78
2022/03/06 10:30:25;;;;;;;;;50.25;39.25;;;;;9.82;51.28;102066.72;5119492;27;46243;-78
2022/03/06 10:32:50;;;;;;;;;56.75;43.50;;;;;9.84;51.11;102062.38;5115564;27;45339;-78
2022/03/06 10:35:16;;;;;;;;;53.25;43.25;;;;;9.89;51.05;102064.31;5119339;27;45463;-78
2022/03/06 10:37:41;;;;;;;;;55.25;42.25;;;;;9.96;50.51;102061.06;5119090;27;46104;-79
2022/03/06 10:40:07;;;;;;;;;52.25;42.00;;;;;10.02;50.59;102062.09;5118740;27;50744;-78
2022/03/06 10:42:33;;;;;;;;;45.00;38.25;;;;;10.05;49.53;102049.88;5113314;27;45380;-78
2022/03/06 10:44:58;;;;;;;;;49.75;38.50;;;;;10.14;49.51;102058.13;5117716;27;45449;-78
2022/03/06 10:47:24;;;;;;;;;49.25;36.25;;;;;10.19;49.74;102053.88;5116003;27;49155;-78
2022/03/06 10:49:59;;;;;;;;;48.50;33.75;;;;;10.22;48.96;102048.69;5114006;27;47346;-78
2022/03/06 10:52:24;;;;;;;;;53.00;41.00;;;;;10.32;48.63;102049.91;5111371;27;45582;-77
2022/03/06 10:54:54;;;;;;;;;45.50;37.00;;;;;10.38;48.96;102067.69;5116822;27;48992;-78
2022/03/06 10:57:20;;;;;;;;;44.50;35.75;;;;;10.39;48.19;102058.94;5116751;27;45645;-78
2022/03/06 10:59:47;;;;;;;;;42.00;36.25;;;;;10.46;47.08;102056.53;5114523;27;46737;-78
2022/03/06 11:02:12;;;;;;;;;2.75;1.00;;;;;10.51;46.71;102061.97;5119327;27;45452;-79
2022/03/06 11:04:38;;;;;;;;;39.00;29.50;;;;;10.55;46.71;102055.94;5119304;27;45586;-78
2022/03/06 11:07:04;;;;;;;;;40.00;35.00;;;;;10.58;46.30;102047.19;5118549;27;45423;-77
2022/03/06 11:09:29;;;;;;;;;38.50;33.25;;;;;10.63;45.49;102045.59;5117676;27;47678;-78
2022/03/06 11:11:55;;;;;;;;;42.75;35.50;;;;;10.70;45.85;102053.72;5115645;27;51104;-78
2022/03/06 11:14:20;;;;;;;;;34.50;27.50;;;;;10.72;45.21;102035.31;5118771;27;45413;-78